Time;durP1;ratioP1;P1;durP2;ratioP2;P2;SDS_P1;SDS_P2;PMS_P1;PMS_P2;Temp;Humidity;BMP_temperature;BMP_pressure;BME280_temperature;BME280_humidity;BME280_pressure;Samples;Min_cycle;Max_cycle;Signal;HPM_P1;HPM_P2
2023/08/26 00:02:07;;;;;;;23.35;14.73;;;16.60;99.90;;;;;;5085877;28;20036;-82
2023/08/26 00:04:33;;;;;;;21.92;13.40;;;16.60;99.90;;;;;;5085972;28;20057;-81
2023/08/26 00:07:00;;;;;;;24.70;14.52;;;16.50;99.90;;;;;;5084777;28;20043;-81
2023/08/26 00:09:26;;;;;;;36.50;16.35;;;16.50;99.90;;;;;;5084255;28;20052;-82
2023/08/26 00:11:52;;;;;;;18.80;14.00;;;16.40;99.90;;;;;;5082336;28;20486;-82
2023/08/26 00:14:18;;;;;;;28.10;14.00;;;16.40;99.90;;;;;;5084702;28;20044;-79
2023/08/26 00:16:44;;;;;;;24.23;14.45;;;16.40;99.90;;;;;;5083099;28;20115;-79
2023/08/26 00:19:10;;;;;;;24.88;14.88;;;16.40;99.90;;;;;;5086990;28;20037;-78
2023/08/26 00:21:36;;;;;;;22.58;15.00;;;16.40;99.90;;;;;;5090752;28;20035;-79
2023/08/26 00:24:04;;;;;;;23.25;13.88;;;16.30;99.90;;;;;;5088334;28;20044;-79
2023/08/26 00:26:29;;;;;;;24.20;14.30;;;16.30;99.90;;;;;;5084942;28;20036;-80
2023/08/26 00:28:55;;;;;;;31.45;15.10;;;16.20;99.90;;;;;;5088484;28;20115;-79
2023/08/26 00:31:22;;;;;;;25.45;13.95;;;16.30;99.90;;;;;;5092983;28;20090;-79
2023/08/26 00:33:48;;;;;;;29.27;14.85;;;16.20;99.90;;;;;;5094857;28;20485;-80
2023/08/26 00:36:14;;;;;;;28.33;15.45;;;16.20;99.90;;;;;;5091330;28;20050;-79
2023/08/26 00:38:40;;;;;;;22.83;13.55;;;16.20;99.90;;;;;;5092175;28;21635;-78
2023/08/26 00:41:05;;;;;;;21.05;13.55;;;16.30;99.90;;;;;;5088969;28;20064;-78
2023/08/26 00:43:31;;;;;;;28.00;12.45;;;16.20;99.90;;;;;;5087647;28;20087;-79
2023/08/26 00:45:59;;;;;;;20.05;13.07;;;16.20;99.90;;;;;;5089848;28;20083;-78
2023/08/26 00:48:24;;;;;;;19.38;12.07;;;16.10;99.90;;;;;;5087166;28;20062;-80
2023/08/26 00:50:53;;;;;;;22.95;12.85;;;16.10;99.90;;;;;;5099415;28;20044;-79
2023/08/26 00:53:21;;;;;;;19.48;12.88;;;16.00;99.90;;;;;;5094734;28;20043;-80
2023/08/26 00:55:47;;;;;;;18.95;12.20;;;16.10;99.90;;;;;;5089066;28;20051;-79
2023/08/26 00:58:14;;;;;;;24.73;12.65;;;16.00;99.90;;;;;;5088272;28;20036;-79
2023/08/26 01:00:41;;;;;;;18.67;12.13;;;16.00;99.90;;;;;;5088066;28;20044;-79
2023/08/26 01:03:07;;;;;;;17.70;11.85;;;16.00;99.90;;;;;;5083814;28;20047;-77
2023/08/26 01:05:33;;;;;;;24.58;13.10;;;15.90;99.90;;;;;;5082208;28;20041;-78
2023/08/26 01:08:00;;;;;;;22.60;12.40;;;15.90;99.90;;;;;;5094403;28;20054;-78
2023/08/26 01:11:12;;;;;;;18.05;12.13;;;15.80;99.90;;;;;;5083564;28;20044;-78
2023/08/26 01:13:53;;;;;;;26.50;12.48;;;15.80;99.90;;;;;;5054173;28;20051;-78
2023/08/26 01:16:22;;;;;;;22.90;12.85;;;15.80;99.90;;;;;;5072058;28;20406;-78
2023/08/26 01:18:49;;;;;;;24.58;13.35;;;15.80;99.90;;;;;;5073891;28;20052;-79
2023/08/26 01:21:17;;;;;;;19.23;11.73;;;15.80;99.90;;;;;;5079851;28;20043;-80
2023/08/26 01:23:44;;;;;;;19.30;11.55;;;15.70;99.90;;;;;;5082532;28;20044;-78
2023/08/26 01:26:09;;;;;;;20.33;11.75;;;15.70;99.90;;;;;;5073249;28;20312;-79
2023/08/26 01:28:35;;;;;;;21.75;12.70;;;15.70;99.90;;;;;;5074080;28;21750;-78
2023/08/26 01:31:12;;;;;;;23.02;11.40;;;15.70;99.90;;;;;;5071869;28;20478;-79
2023/08/26 01:34:09;;;;;;;21.65;12.13;;;15.60;99.90;;;;;;5058856;28;20483;-78
2023/08/26 01:36:41;;;;;;;25.63;11.30;;;15.60;99.90;;;;;;5079408;28;20044;-79
2023/08/26 01:39:08;;;;;;;21.15;11.38;;;15.60;99.90;;;;;;5113664;27;20687;-79
2023/08/26 01:41:34;;;;;;;26.13;12.30;;;15.60;99.90;;;;;;5082630;28;20147;-79
2023/08/26 01:44:01;;;;;;;26.10;12.07;;;15.60;99.90;;;;;;5082066;28;20047;-78
2023/08/26 01:46:37;;;;;;;22.15;11.65;;;15.60;99.90;;;;;;5079858;28;20037;-78
2023/08/26 01:49:04;;;;;;;20.33;11.25;;;15.60;99.90;;;;;;5082896;28;20551;-79
2023/08/26 01:51:30;;;;;;;21.63;11.35;;;15.50;99.90;;;;;;5085549;28;20077;-78
2023/08/26 01:53:56;;;;;;;20.60;11.05;;;15.50;99.90;;;;;;5082420;28;20029;-79
2023/08/26 01:56:21;;;;;;;22.55;11.35;;;15.50;99.90;;;;;;5093251;28;20048;-78
2023/08/26 01:58:47;;;;;;;26.20;11.75;;;15.50;99.90;;;;;;5082384;28;20036;-79
2023/08/26 02:01:13;;;;;;;22.90;11.35;;;15.50;99.90;;;;;;5084723;28;20112;-79
2023/08/26 02:03:38;;;;;;;23.00;11.55;;;15.40;99.90;;;;;;5084337;28;20036;-80
2023/08/26 02:06:05;;;;;;;17.95;10.60;;;15.40;99.90;;;;;;5082099;28;20147;-79
2023/08/26 02:08:31;;;;;;;20.93;10.77;;;15.30;99.90;;;;;;5083187;28;20040;-79
2023/08/26 02:10:57;;;;;;;21.75;10.77;;;15.30;99.90;;;;;;5081867;28;20038;-78
2023/08/26 02:13:23;;;;;;;19.83;10.73;;;15.30;99.90;;;;;;5080749;28;20036;-78
2023/08/26 02:15:49;;;;;;;22.33;11.50;;;15.20;99.90;;;;;;5094998;28;20097;-78
2023/08/26 02:18:15;;;;;;;25.63;12.27;;;15.20;99.90;;;;;;5080379;28;20315;-78
2023/08/26 02:20:42;;;;;;;21.27;11.15;;;15.10;99.90;;;;;;5052467;28;20087;-78
2023/08/26 02:23:09;;;;;;;19.45;11.82;;;15.10;99.90;;;;;;5080675;28;20040;-78
2023/08/26 02:25:35;;;;;;;23.17;12.33;;;15.00;99.90;;;;;;5080265;28;20058;-78
2023/08/26 02:28:00;;;;;;;23.90;11.32;;;15.00;99.90;;;;;;5071881;28;20044;-78
2023/08/26 02:30:26;;;;;;;24.42;12.52;;;15.00;99.90;;;;;;5085537;28;21192;-79
2023/08/26 02:32:52;;;;;;;21.10;11.95;;;15.00;99.90;;;;;;5082827;28;20139;-78
2023/08/26 02:35:17;;;;;;;24.65;11.68;;;14.90;99.90;;;;;;5070995;28;20496;-78
2023/08/26 02:37:43;;;;;;;21.90;12.10;;;14.90;99.90;;;;;;5073670;28;20161;-79
2023/08/26 02:40:09;;;;;;;22.25;12.48;;;14.70;99.90;;;;;;5072532;28;20135;-78
2023/08/26 02:42:34;;;;;;;18.83;11.55;;;14.90;99.90;;;;;;5072648;28;20044;-79
2023/08/26 02:45:00;;;;;;;23.20;13.15;;;14.80;99.90;;;;;;5074574;28;20116;-78
2023/08/26 02:47:26;;;;;;;28.55;13.57;;;14.80;99.90;;;;;;5069908;28;20052;-78
2023/08/26 02:49:51;;;;;;;22.10;12.35;;;14.90;99.90;;;;;;5079507;28;20386;-78
2023/08/26 02:52:17;;;;;;;20.33;11.65;;;14.80;99.90;;;;;;5082322;28;20041;-78
2023/08/26 02:54:43;;;;;;;22.48;12.55;;;14.80;99.90;;;;;;5107933;27;20044;-77
2023/08/26 02:57:08;;;;;;;23.33;12.93;;;14.80;99.90;;;;;;5083188;28;20048;-78
2023/08/26 02:59:34;;;;;;;25.88;13.07;;;14.70;99.90;;;;;;5084265;28;21869;-78
2023/08/26 03:02:04;;;;;;;19.52;11.73;;;14.80;99.90;;;;;;5111950;27;20045;-78
2023/08/26 03:04:33;;;;;;;27.58;12.82;;;14.70;99.90;;;;;;5082111;28;20074;-77
2023/08/26 03:06:59;;;;;;;25.20;12.10;;;14.60;99.90;;;;;;5087259;28;20039;-78
2023/08/26 03:09:27;;;;;;;14.68;9.60;;;14.60;99.90;;;;;;5081940;28;20036;-78
2023/08/26 03:11:54;;;;;;;21.73;9.60;;;14.60;99.90;;;;;;5087431;28;20106;-77
2023/08/26 03:14:19;;;;;;;16.05;9.35;;;14.60;99.90;;;;;;5083125;28;20051;-78
2023/08/26 03:16:45;;;;;;;15.20;8.80;;;14.50;99.90;;;;;;5085798;28;20040;-78
2023/08/26 03:19:11;;;;;;;14.98;7.38;;;14.50;99.90;;;;;;5087962;28;20076;-78
2023/08/26 03:21:36;;;;;;;15.30;7.53;;;14.50;99.90;;;;;;5094019;28;20044;-78
2023/08/26 03:24:02;;;;;;;8.30;5.72;;;14.50;99.90;;;;;;5076269;28;20047;-80
2023/08/26 03:26:28;;;;;;;11.02;6.32;;;14.40;99.90;;;;;;5080072;28;20051;-78
2023/08/26 03:28:53;;;;;;;15.48;7.20;;;14.40;99.90;;;;;;5084342;28;20459;-79
2023/08/26 03:31:19;;;;;;;13.32;7.53;;;14.40;99.90;;;;;;5090461;28;20032;-78
2023/08/26 03:33:45;;;;;;;15.40;7.68;;;14.30;99.90;;;;;;5085722;28;20048;-78
2023/08/26 03:36:10;;;;;;;14.35;7.88;;;14.30;99.90;;;;;;5088198;28;20040;-78
2023/08/26 03:38:36;;;;;;;22.05;7.80;;;14.30;99.90;;;;;;5090856;28;20111;-79
2023/08/26 03:41:05;;;;;;;16.50;7.80;;;14.30;99.90;;;;;;5089060;28;20069;-78
2023/08/26 03:43:31;;;;;;;12.85;7.88;;;14.20;99.90;;;;;;5076167;28;20423;-78
2023/08/26 03:45:57;;;;;;;18.60;7.95;;;14.20;99.90;;;;;;5081230;28;20096;-78
2023/08/26 03:48:23;;;;;;;12.68;7.88;;;14.20;99.90;;;;;;5088556;28;20033;-79
2023/08/26 03:50:53;;;;;;;16.50;7.75;;;14.20;99.90;;;;;;5083133;28;20040;-77
2023/08/26 03:53:19;;;;;;;15.35;8.35;;;14.10;99.90;;;;;;5088724;28;20383;-79
2023/08/26 03:55:46;;;;;;;12.10;8.07;;;14.10;99.90;;;;;;5081800;28;20048;-78
2023/08/26 03:58:12;;;;;;;16.60;8.02;;;14.10;99.90;;;;;;5089886;28;20043;-78
2023/08/26 04:00:38;;;;;;;13.15;8.25;;;14.10;99.90;;;;;;5079458;28;20043;-78
2023/08/26 04:03:06;;;;;;;13.35;8.18;;;14.10;99.90;;;;;;5074837;28;20550;-78
2023/08/26 04:05:33;;;;;;;13.32;8.15;;;14.10;99.90;;;;;;5084554;28;20165;-78
2023/08/26 04:07:59;;;;;;;16.95;8.68;;;14.10;99.90;;;;;;5079203;28;20486;-78
2023/08/26 04:10:25;;;;;;;17.10;10.00;;;14.10;99.90;;;;;;5083661;28;20040;-79
2023/08/26 04:12:51;;;;;;;16.13;9.02;;;14.20;99.90;;;;;;5078519;28;20040;-79
2023/08/26 04:15:20;;;;;;;15.40;8.95;;;14.20;99.90;;;;;;5079841;28;20040;-79
2023/08/26 04:17:45;;;;;;;16.02;9.40;;;14.20;99.90;;;;;;5080667;28;20034;-79
2023/08/26 04:20:11;;;;;;;15.80;9.70;;;14.20;99.90;;;;;;5079548;28;20045;-79
2023/08/26 04:22:37;;;;;;;16.83;9.80;;;14.20;99.90;;;;;;5113823;27;20041;-78
2023/08/26 04:25:05;;;;;;;19.30;9.30;;;14.20;99.90;;;;;;5084691;28;20578;-79
2023/08/26 04:27:33;;;;;;;16.20;8.82;;;14.20;99.90;;;;;;5079904;28;20048;-79
2023/08/26 04:29:59;;;;;;;17.02;9.32;;;14.30;99.90;;;;;;5089264;28;20044;-79
2023/08/26 04:32:26;;;;;;;16.75;8.45;;;14.30;99.90;;;;;;5080061;28;20127;-78
2023/08/26 04:34:51;;;;;;;13.95;8.90;;;14.30;99.90;;;;;;5078828;28;20457;-79
2023/08/26 04:37:20;;;;;;;19.67;8.85;;;14.30;99.90;;;;;;5077357;28;20068;-78
2023/08/26 04:39:46;;;;;;;17.98;9.05;;;14.30;99.90;;;;;;5099736;28;20056;-78
2023/08/26 04:42:12;;;;;;;12.65;8.02;;;14.30;99.90;;;;;;5078029;28;20044;-78
2023/08/26 04:44:38;;;;;;;11.68;8.00;;;14.30;99.90;;;;;;5058226;28;20513;-78
2023/08/26 04:47:04;;;;;;;19.67;8.40;;;14.30;99.90;;;;;;5080561;28;20036;-78
2023/08/26 04:49:31;;;;;;;16.52;8.43;;;14.30;99.90;;;;;;5088447;28;20063;-78
2023/08/26 04:51:57;;;;;;;16.73;7.47;;;14.40;99.90;;;;;;5084119;28;20044;-78
2023/08/26 04:54:23;;;;;;;12.73;7.80;;;14.40;99.90;;;;;;5082919;28;20043;-78
2023/08/26 04:56:48;;;;;;;16.38;7.90;;;14.40;99.90;;;;;;5084368;28;20047;-78
2023/08/26 04:59:14;;;;;;;13.00;8.13;;;14.40;99.90;;;;;;5081207;28;20525;-78
2023/08/26 05:01:43;;;;;;;14.43;8.23;;;14.40;99.90;;;;;;5086868;28;20519;-78
2023/08/26 05:04:09;;;;;;;18.23;8.88;;;14.50;99.90;;;;;;5085477;28;20119;-79
2023/08/26 05:06:34;;;;;;;13.35;7.55;;;14.50;99.90;;;;;;5079996;28;20032;-78
2023/08/26 05:09:00;;;;;;;11.82;7.55;;;14.50;99.90;;;;;;5078625;28;20124;-78
2023/08/26 05:11:25;;;;;;;14.77;7.00;;;14.50;99.90;;;;;;5078113;28;20153;-78
2023/08/26 05:13:51;;;;;;;13.40;7.72;;;14.50;99.90;;;;;;5079457;28;20040;-78
2023/08/26 05:16:17;;;;;;;22.02;8.48;;;14.50;99.90;;;;;;5079328;28;20040;-78
2023/08/26 05:18:43;;;;;;;8.88;6.72;;;14.60;99.90;;;;;;5068744;28;20040;-78
2023/08/26 05:21:08;;;;;;;11.65;6.70;;;14.60;99.90;;;;;;5081993;28;20048;-79
2023/08/26 05:23:34;;;;;;;13.43;7.38;;;14.60;99.90;;;;;;5081265;28;20059;-79
2023/08/26 05:26:00;;;;;;;13.43;7.55;;;14.60;99.90;;;;;;5080803;28;20043;-79
2023/08/26 05:28:25;;;;;;;15.23;8.00;;;14.70;99.90;;;;;;5083406;28;20036;-79
2023/08/26 05:30:51;;;;;;;14.75;7.90;;;14.70;99.90;;;;;;5096156;28;20152;-79
2023/08/26 05:33:17;;;;;;;13.82;7.82;;;14.80;99.90;;;;;;5081997;28;20044;-78
2023/08/26 05:35:43;;;;;;;12.38;7.70;;;14.80;99.90;;;;;;5078519;28;20044;-78
2023/08/26 05:38:08;;;;;;;19.13;8.25;;;14.80;99.90;;;;;;5115439;27;20032;-78
2023/08/26 05:40:34;;;;;;;13.23;8.25;;;14.80;99.90;;;;;;5082128;28;20055;-78
2023/08/26 05:43:00;;;;;;;19.92;8.90;;;14.80;99.90;;;;;;5083634;28;20101;-79
2023/08/26 05:45:26;;;;;;;16.25;9.52;;;14.80;99.90;;;;;;5078204;28;20036;-79
2023/08/26 05:47:53;;;;;;;17.10;9.82;;;14.90;99.90;;;;;;5063955;28;20052;-79
2023/08/26 05:50:18;;;;;;;15.35;9.55;;;14.80;99.90;;;;;;5092761;28;20061;-79
2023/08/26 05:52:44;;;;;;;16.10;8.88;;;14.90;99.90;;;;;;5066088;28;20127;-79
2023/08/26 05:55:11;;;;;;;16.50;8.88;;;14.90;99.90;;;;;;5108103;27;20063;-78
2023/08/26 05:57:41;;;;;;;17.45;8.40;;;14.90;99.90;;;;;;5064594;28;20045;-77
2023/08/26 06:00:08;;;;;;;12.52;8.05;;;14.90;99.90;;;;;;5089608;28;20457;-78
2023/08/26 06:02:34;;;;;;;14.50;7.97;;;14.90;99.90;;;;;;5083379;28;20391;-78
2023/08/26 06:04:59;;;;;;;12.23;8.07;;;14.90;99.90;;;;;;5089364;28;20067;-78
2023/08/26 06:07:25;;;;;;;12.85;8.35;;;14.90;99.90;;;;;;5084444;28;20502;-78
2023/08/26 06:09:51;;;;;;;15.68;7.05;;;14.90;99.90;;;;;;5073569;28;20040;-78
2023/08/26 06:12:16;;;;;;;14.93;7.95;;;15.00;99.90;;;;;;5060936;28;20097;-79
2023/08/26 06:14:42;;;;;;;13.18;7.30;;;15.00;99.90;;;;;;5080242;28;20040;-79
2023/08/26 06:17:08;;;;;;;9.38;6.55;;;15.00;99.90;;;;;;5087593;28;20091;-78
2023/08/26 06:19:34;;;;;;;11.80;7.28;;;15.00;99.90;;;;;;5114485;27;20056;-79
2023/08/26 06:21:59;;;;;;;8.45;6.60;;;14.90;99.90;;;;;;5061346;28;20049;-78
2023/08/26 06:24:26;;;;;;;11.77;6.38;;;14.90;99.90;;;;;;5072237;28;20631;-79
2023/08/26 06:26:52;;;;;;;11.45;6.05;;;14.90;99.90;;;;;;5078846;28;20044;-79
2023/08/26 06:29:19;;;;;;;11.50;6.70;;;14.90;99.90;;;;;;5066324;28;20043;-79
2023/08/26 06:31:45;;;;;;;14.10;6.57;;;14.90;99.90;;;;;;5069258;28;20771;-76
2023/08/26 06:34:11;;;;;;;9.50;6.78;;;14.80;99.90;;;;;;5073996;28;20074;-78
2023/08/26 06:36:37;;;;;;;13.43;6.15;;;14.80;99.90;;;;;;5071478;28;20040;-78
2023/08/26 06:39:03;;;;;;;11.18;5.72;;;14.80;99.90;;;;;;5077801;28;20028;-78
2023/08/26 06:41:32;;;;;;;14.07;5.82;;;14.80;99.90;;;;;;5075772;28;20120;-79
2023/08/26 06:43:58;;;;;;;8.27;5.72;;;14.80;99.90;;;;;;5068936;28;20086;-78
2023/08/26 06:46:24;;;;;;;10.75;5.75;;;14.80;99.90;;;;;;5070309;28;20068;-79
2023/08/26 06:48:50;;;;;;;7.22;5.40;;;14.80;99.90;;;;;;5076737;28;20713;-79
2023/08/26 06:51:16;;;;;;;10.00;5.45;;;14.80;99.90;;;;;;5078794;28;20037;-78
2023/08/26 06:53:41;;;;;;;8.93;5.75;;;14.80;99.90;;;;;;5080120;28;20049;-78
2023/08/26 06:56:07;;;;;;;9.43;5.15;;;14.80;99.90;;;;;;5082013;28;20481;-78
2023/08/26 06:58:33;;;;;;;11.55;5.43;;;14.80;99.90;;;;;;5091510;28;20393;-78
2023/08/26 07:00:59;;;;;;;8.82;5.63;;;14.80;99.90;;;;;;5081972;28;20036;-78
2023/08/26 07:03:25;;;;;;;8.77;5.57;;;14.80;99.90;;;;;;5087262;28;20043;-79
2023/08/26 07:05:51;;;;;;;10.13;4.78;;;14.80;99.90;;;;;;5079808;28;20095;-79
2023/08/26 07:08:18;;;;;;;9.65;5.40;;;14.80;99.90;;;;;;5083869;28;20424;-78
2023/08/26 07:10:51;;;;;;;9.05;4.97;;;14.80;99.90;;;;;;5084143;28;20040;-78
2023/08/26 07:13:16;;;;;;;8.57;5.10;;;14.80;99.90;;;;;;5125353;27;20040;-77
2023/08/26 07:15:42;;;;;;;8.40;5.03;;;14.90;99.90;;;;;;5073811;28;20051;-78
2023/08/26 07:18:08;;;;;;;8.88;5.63;;;14.90;99.90;;;;;;5075177;28;20041;-78
2023/08/26 07:20:33;;;;;;;11.27;5.50;;;15.00;99.90;;;;;;5083218;28;20494;-77
2023/08/26 07:22:59;;;;;;;8.85;5.30;;;15.00;99.90;;;;;;5085441;28;20437;-77
2023/08/26 07:25:25;;;;;;;6.80;5.07;;;15.00;99.90;;;;;;5087734;28;20040;-78
2023/08/26 07:27:55;;;;;;;10.98;5.30;;;15.10;99.90;;;;;;5071118;28;20052;-78
2023/08/26 07:30:21;;;;;;;8.45;5.53;;;15.20;99.90;;;;;;5071715;28;20066;-78
2023/08/26 07:32:50;;;;;;;11.65;6.25;;;15.20;99.90;;;;;;5084199;28;20040;-78
2023/08/26 07:35:16;;;;;;;8.75;6.53;;;15.30;99.90;;;;;;5075830;28;20123;-77
2023/08/26 07:37:42;;;;;;;10.40;6.85;;;15.30;99.90;;;;;;5087159;28;20082;-78
2023/08/26 07:40:14;;;;;;;10.35;7.90;;;15.50;99.90;;;;;;5088182;28;20043;-78
2023/08/26 07:42:43;;;;;;;12.07;8.02;;;15.70;99.90;;;;;;5080007;28;20044;-76
2023/08/26 07:45:09;;;;;;;16.73;9.48;;;15.90;99.90;;;;;;5115834;28;20063;-76
2023/08/26 07:47:35;;;;;;;20.55;11.93;;;16.00;99.90;;;;;;5082126;28;20110;-78
2023/08/26 07:50:01;;;;;;;16.52;12.60;;;16.20;99.90;;;;;;5074526;28;20463;-78
2023/08/26 07:52:27;;;;;;;21.50;15.00;;;16.40;99.90;;;;;;5078386;28;20071;-78
2023/08/26 07:54:52;;;;;;;21.25;15.07;;;16.50;99.90;;;;;;5074512;28;20049;-78
2023/08/26 07:57:18;;;;;;;19.65;14.13;;;16.70;99.90;;;;;;5086381;28;20089;-77
2023/08/26 07:59:44;;;;;;;24.70;15.88;;;16.90;99.90;;;;;;5085195;28;20044;-78
2023/08/26 08:02:09;;;;;;;25.00;16.60;;;17.00;99.90;;;;;;5090786;28;20044;-77
2023/08/26 08:04:35;;;;;;;23.70;15.95;;;17.00;99.90;;;;;;5070547;28;20063;-80
2023/08/26 08:07:01;;;;;;;21.83;15.98;;;17.10;99.90;;;;;;5077169;28;20101;-76
2023/08/26 08:09:26;;;;;;;27.25;17.90;;;17.10;99.90;;;;;;5077813;28;20062;-78
2023/08/26 08:11:52;;;;;;;25.77;18.00;;;17.00;99.90;;;;;;5070893;28;20502;-79
2023/08/26 08:14:18;;;;;;;24.85;17.83;;;17.10;99.90;;;;;;5075770;28;20098;-78
2023/08/26 08:16:43;;;;;;;29.77;20.67;;;17.10;99.90;;;;;;5074364;28;20491;-77
2023/08/26 08:19:09;;;;;;;29.60;20.55;;;17.00;99.90;;;;;;5080191;28;20040;-77
2023/08/26 08:21:35;;;;;;;27.05;20.60;;;17.10;99.90;;;;;;5066738;28;20127;-78
2023/08/26 08:24:00;;;;;;;23.08;17.50;;;17.20;99.90;;;;;;5084987;28;20048;-78
2023/08/26 08:26:27;;;;;;;25.20;19.05;;;17.20;99.90;;;;;;5073099;28;20491;-77
2023/08/26 08:28:53;;;;;;;33.97;19.42;;;17.30;99.90;;;;;;5083806;28;20079;-77
2023/08/26 08:31:19;;;;;;;26.13;19.85;;;17.40;99.90;;;;;;5086180;28;20064;-78
2023/08/26 08:33:48;;;;;;;32.05;19.02;;;17.50;99.90;;;;;;5094209;28;20063;-78
2023/08/26 08:36:14;;;;;;;25.73;18.42;;;17.60;99.90;;;;;;5091445;28;20489;-77
2023/08/26 08:38:40;;;;;;;25.35;18.52;;;17.60;99.90;;;;;;5082829;28;20044;-78
2023/08/26 08:41:06;;;;;;;27.70;17.10;;;17.70;99.90;;;;;;5081793;28;20512;-76
2023/08/26 08:43:37;;;;;;;22.27;15.27;;;17.90;99.90;;;;;;5114549;27;20071;-77
2023/08/26 08:46:03;;;;;;;20.90;17.13;;;18.00;99.90;;;;;;5079611;28;20032;-77
2023/08/26 08:48:32;;;;;;;23.30;17.13;;;18.20;99.90;;;;;;5079382;28;20044;-76
2023/08/26 08:50:58;;;;;;;19.77;14.93;;;18.40;99.90;;;;;;5082957;28;20105;-77
2023/08/26 08:53:30;;;;;;;15.82;13.82;;;18.60;99.90;;;;;;5095458;28;20052;-76
2023/08/26 08:55:56;;;;;;;18.05;15.02;;;18.70;99.90;;;;;;5082746;28;20078;-77
2023/08/26 08:58:22;;;;;;;16.17;13.88;;;18.70;99.90;;;;;;5086704;28;20079;-76
2023/08/26 09:00:49;;;;;;;15.82;13.77;;;18.80;99.90;;;;;;5089397;28;20114;-76
2023/08/26 09:03:15;;;;;;;17.25;12.50;;;18.90;99.90;;;;;;5077365;28;20072;-77
2023/08/26 09:05:42;;;;;;;17.88;12.30;;;19.00;99.90;;;;;;5080820;28;20048;-77
2023/08/26 09:08:09;;;;;;;14.32;10.65;;;19.10;99.90;;;;;;5074710;28;20055;-78
2023/08/26 09:10:35;;;;;;;14.60;11.30;;;19.20;99.90;;;;;;5075098;28;20032;-78
2023/08/26 09:13:03;;;;;;;14.70;10.63;;;19.30;99.90;;;;;;5079076;28;20057;-76
2023/08/26 09:15:29;;;;;;;14.18;11.07;;;19.40;99.90;;;;;;5074868;28;20410;-77
2023/08/26 09:18:00;;;;;;;15.85;10.95;;;19.50;99.90;;;;;;5074110;28;20048;-77
2023/08/26 09:20:28;;;;;;;14.98;9.90;;;19.50;99.90;;;;;;5082269;28;20056;-77
2023/08/26 09:23:03;;;;;;;16.98;10.07;;;19.40;99.90;;;;;;5076628;28;20407;-76
2023/08/26 09:25:33;;;;;;;14.50;9.93;;;19.20;99.90;;;;;;5081799;28;20047;-77
2023/08/26 09:27:59;;;;;;;12.85;10.15;;;19.20;99.90;;;;;;5075277;28;20037;-77
2023/08/26 09:30:25;;;;;;;12.57;9.02;;;19.10;99.90;;;;;;5081092;28;20056;-77
2023/08/26 09:32:52;;;;;;;14.77;9.45;;;19.30;99.90;;;;;;5082134;28;20127;-76
2023/08/26 09:35:18;;;;;;;12.68;9.15;;;19.50;99.90;;;;;;5079483;28;20047;-76
2023/08/26 09:37:47;;;;;;;13.52;9.43;;;19.40;99.90;;;;;;5081617;28;20036;-77
2023/08/26 09:40:17;;;;;;;11.32;8.82;;;19.40;99.90;;;;;;5100872;28;20044;-76
2023/08/26 09:42:43;;;;;;;12.43;9.60;;;19.60;99.90;;;;;;5097312;28;20378;-78
2023/08/26 09:45:17;;;;;;;12.50;8.07;;;19.60;99.90;;;;;;5063727;28;20126;-78
2023/08/26 09:47:46;;;;;;;11.07;7.68;;;19.70;99.90;;;;;;5074140;28;20075;-76
2023/08/26 09:50:12;;;;;;;12.45;8.30;;;19.60;99.90;;;;;;5084285;28;20044;-76
2023/08/26 09:52:48;;;;;;;11.73;8.48;;;19.50;99.90;;;;;;5080245;28;20043;-78
2023/08/26 09:55:15;;;;;;;13.77;8.30;;;19.80;99.90;;;;;;5079499;28;20039;-76
2023/08/26 09:57:41;;;;;;;14.93;7.78;;;19.90;99.90;;;;;;5085262;28;20055;-76
2023/08/26 10:00:10;;;;;;;17.52;8.50;;;20.10;99.90;;;;;;5074539;28;20549;-76
2023/08/26 10:02:38;;;;;;;12.70;8.23;;;20.30;99.90;;;;;;5078940;28;20041;-76
2023/08/26 10:05:15;;;;;;;11.55;7.40;;;20.30;99.90;;;;;;5088751;28;20048;-76
2023/08/26 10:07:43;;;;;;;11.57;6.97;;;20.40;99.90;;;;;;5080538;28;20402;-77
2023/08/26 10:10:19;;;;;;;;;;;20.50;99.90;;;;;;5086096;28;20707;-77
2023/08/26 10:12:49;;;;;;;10.32;7.18;;;20.30;99.90;;;;;;5112726;27;19985;-77
2023/08/26 10:15:17;;;;;;;14.65;7.75;;;20.10;99.90;;;;;;5071694;28;20485;-76
2023/08/26 10:17:48;;;;;;;;;;;20.00;99.90;;;;;;5077813;28;20079;-77
2023/08/26 10:20:14;;;;;;;12.48;7.18;;;19.70;99.90;;;;;;5074887;28;19920;-76
2023/08/26 10:22:40;;;;;;;11.63;6.78;;;19.40;99.90;;;;;;5082563;28;20048;-77
2023/08/26 10:25:09;;;;;;;7.28;4.82;;;19.10;99.90;;;;;;5072430;28;20042;-76
2023/08/26 10:27:43;;;;;;;6.80;3.33;;;18.70;99.90;;;;;;5063016;28;20459;-75
2023/08/26 10:30:10;;;;;;;11.68;3.05;;;18.40;99.90;;;;;;5070722;28;20448;-76
2023/08/26 10:32:46;;;;;;;5.97;2.20;;;18.00;99.90;;;;;;5081239;28;20052;-75
2023/08/26 10:35:13;;;;;;;11.70;2.50;;;17.60;99.90;;;;;;5075891;28;20502;-74
2023/08/26 10:37:40;;;;;;;9.55;3.65;;;17.20;99.90;;;;;;5080181;28;20131;-74
2023/08/26 10:40:12;;;;;;;11.15;3.45;;;16.90;99.90;;;;;;5077268;28;20102;-73
2023/08/26 10:43:08;;;;;;;15.13;3.80;;;16.60;99.90;;;;;;5082879;28;20397;-74
2023/08/26 10:45:43;;;;;;;6.07;2.58;;;16.20;99.90;;;;;;5084503;28;20063;-74
2023/08/26 10:48:09;;;;;;;9.13;2.80;;;16.00;99.90;;;;;;5070060;28;20052;-74
2023/08/26 10:50:35;;;;;;;6.95;2.70;;;15.90;99.90;;;;;;5069454;28;20055;-75
2023/08/26 10:53:16;;;;;;;5.45;2.85;;;15.80;99.90;;;;;;5071641;28;20032;-76
2023/08/26 10:55:42;;;;;;;9.15;3.22;;;15.80;99.90;;;;;;5047780;28;20764;-76
2023/08/26 10:58:11;;;;;;;4.85;3.03;;;15.80;99.90;;;;;;5071516;28;20044;-75
2023/08/26 11:00:39;;;;;;;6.05;3.50;;;15.90;99.90;;;;;;5070854;28;20471;-76
2023/08/26 11:03:08;;;;;;;4.55;2.95;;;16.00;99.90;;;;;;5066959;28;20131;-76
2023/08/26 11:05:36;;;;;;;5.15;3.17;;;16.00;99.90;;;;;;5065851;28;20437;-76
2023/08/26 11:08:03;;;;;;;5.30;3.00;;;16.20;99.90;;;;;;5069464;28;20049;-77
2023/08/26 11:10:34;;;;;;;8.02;3.00;;;16.50;99.90;;;;;;5068749;28;20075;-78
2023/08/26 11:13:01;;;;;;;3.92;3.00;;;16.70;99.90;;;;;;5070584;28;20031;-79
2023/08/26 11:15:37;;;;;;;4.25;2.53;;;16.90;99.90;;;;;;5072262;28;20048;-78
2023/08/26 11:18:05;;;;;;;5.22;2.50;;;17.10;99.90;;;;;;5073644;28;20036;-78
2023/08/26 11:20:30;;;;;;;9.95;2.90;;;17.20;99.90;;;;;;5076539;28;20056;-77
2023/08/26 11:22:56;;;;;;;6.95;3.53;;;17.30;99.90;;;;;;5068078;28;20051;-78
2023/08/26 11:25:22;;;;;;;6.60;3.67;;;17.60;99.90;;;;;;5069890;28;20084;-80
2023/08/26 11:27:48;;;;;;;7.32;4.70;;;18.00;99.90;;;;;;5076881;28;20131;-78
2023/08/26 11:30:14;;;;;;;7.35;5.07;;;18.50;99.90;;;;;;5066781;28;20051;-79
2023/08/26 11:32:40;;;;;;;7.38;4.85;;;19.00;99.90;;;;;;5080451;28;20123;-78
2023/08/26 11:35:08;;;;;;;7.22;5.82;;;19.40;99.90;;;;;;5081505;28;20055;-78
2023/08/26 11:37:42;;;;;;;8.73;4.90;;;19.80;99.90;;;;;;5073182;28;20051;-79
2023/08/26 11:40:08;;;;;;;6.63;4.50;;;20.10;99.90;;;;;;5052763;28;20047;-79
2023/08/26 11:42:34;;;;;;;9.88;4.55;;;20.20;99.90;;;;;;5073265;28;20037;-78
2023/08/26 11:44:59;;;;;;;8.82;4.93;;;20.30;99.90;;;;;;5072580;28;20046;-79
2023/08/26 11:47:25;;;;;;;7.38;5.03;;;20.30;99.90;;;;;;5074790;28;20443;-79
2023/08/26 11:49:58;;;;;;;10.70;5.57;;;20.30;99.90;;;;;;5062409;28;20047;-78
2023/08/26 11:52:37;;;;;;;9.07;5.40;;;20.50;99.90;;;;;;5075343;28;20397;-78
2023/08/26 11:55:05;;;;;;;6.95;4.88;;;20.40;99.90;;;;;;5072162;28;20067;-78
2023/08/26 11:57:38;;;;;;;10.50;5.82;;;20.30;99.90;;;;;;5072077;28;20044;-77
2023/08/26 12:00:16;;;;;;;9.32;5.63;;;19.90;99.90;;;;;;5084027;28;20045;-78
2023/08/26 12:02:46;;;;;;;10.07;7.13;;;19.60;99.90;;;;;;5071644;28;20051;-79
2023/08/26 12:05:14;;;;;;;13.18;7.70;;;19.30;99.90;;;;;;5067732;28;20383;-79
2023/08/26 12:07:44;;;;;;;10.75;7.93;;;19.10;99.90;;;;;;5071750;28;20126;-78
2023/08/26 12:10:12;;;;;;;12.45;8.00;;;18.90;99.90;;;;;;5071101;28;20044;-78
2023/08/26 12:12:39;;;;;;;15.27;7.75;;;18.80;99.90;;;;;;5067450;28;20363;-78
2023/08/26 12:15:11;;;;;;;8.93;6.82;;;18.70;99.90;;;;;;5049125;28;20502;-78
2023/08/26 12:17:47;;;;;;;11.25;7.40;;;18.60;99.90;;;;;;5074607;28;20126;-78
2023/08/26 12:20:23;;;;;;;15.40;9.27;;;18.50;99.90;;;;;;5073539;28;20059;-78
2023/08/26 12:22:49;;;;;;;11.30;8.63;;;18.60;99.90;;;;;;5074860;28;20032;-78
2023/08/26 12:25:23;;;;;;;12.95;9.25;;;19.10;99.90;;;;;;5073097;28;20044;-78
2023/08/26 12:27:48;;;;;;;12.93;8.60;;;19.60;99.90;;;;;;5088068;28;20669;-79
2023/08/26 12:30:14;;;;;;;9.18;8.00;;;20.20;99.90;;;;;;5092210;28;20048;-78
2023/08/26 12:32:40;;;;;;;8.23;4.82;;;20.60;99.90;;;;;;5055751;28;20470;-80
2023/08/26 12:35:06;;;;;;;8.00;4.30;;;21.10;99.90;;;;;;5074928;28;20102;-79
2023/08/26 12:37:32;;;;;;;5.15;3.80;;;21.30;99.90;;;;;;5070943;28;20382;-78